createdAt,value
2019-03-31T00:02:37.268Z,8.60
2019-03-31T00:05:25.444Z,10.07
2019-03-31T00:08:13.942Z,9.63
2019-03-31T00:11:02.561Z,12.10
2019-03-31T00:13:51.106Z,10.20
2019-03-31T00:16:40.160Z,11.47
2019-03-31T00:19:28.233Z,13.63
2019-03-31T00:22:16.565Z,9.13
2019-03-31T00:25:06.321Z,8.30
2019-03-31T00:27:54.675Z,11.07
2019-03-31T00:30:43.384Z,11.83
2019-03-31T00:33:31.641Z,10.00
2019-03-31T00:36:20.941Z,8.53
2019-03-31T00:39:09.504Z,9.10
2019-03-31T00:41:40.166Z,11.13
2019-03-31T00:44:10.811Z,11.33
2019-03-31T00:46:41.555Z,10.67
2019-03-31T00:49:13.102Z,10.27
2019-03-31T00:52:01.476Z,9.77
2019-03-31T00:54:49.957Z,9.10
2019-03-31T00:57:38.421Z,11.57
2019-03-31T01:00:46.664Z,14.33
2019-03-31T01:03:35.442Z,8.50
2019-03-31T01:06:24.734Z,7.47
2019-03-31T01:09:29.487Z,6.53
2019-03-31T01:12:18.958Z,9.27
2019-03-31T01:15:11.102Z,9.17
2019-03-31T01:18:00.530Z,8.27
2019-03-31T01:20:49.191Z,5.90
2019-03-31T01:23:37.734Z,5.67
2019-03-31T01:26:27.193Z,8.63
2019-03-31T01:29:16.139Z,7.50
2019-03-31T01:32:05.035Z,6.47
2019-03-31T01:34:53.418Z,6.13
2019-03-31T01:37:42.405Z,6.67
2019-03-31T01:40:31.209Z,5.17
2019-03-31T01:43:20.338Z,4.63
2019-03-31T01:46:10.421Z,8.80
2019-03-31T01:48:58.686Z,5.40
2019-03-31T01:51:47.319Z,8.90
2019-03-31T01:54:36.329Z,5.70
2019-03-31T01:57:25.114Z,5.50
2019-03-31T02:00:24.820Z,5.73
2019-03-31T02:03:13.610Z,7.93
2019-03-31T02:06:03.007Z,6.00
2019-03-31T02:08:51.550Z,4.40
2019-03-31T02:11:40.103Z,5.37
2019-03-31T02:14:28.245Z,10.13
2019-03-31T02:17:16.737Z,4.70
2019-03-31T02:20:07.198Z,4.90
2019-03-31T02:22:56.142Z,6.60
2019-03-31T02:25:44.750Z,6.30
2019-03-31T02:28:32.993Z,4.57
2019-03-31T02:31:21.340Z,4.70
2019-03-31T02:34:09.729Z,4.93
2019-03-31T02:36:58.626Z,5.30
2019-03-31T02:39:46.937Z,4.00
2019-03-31T02:42:35.238Z,4.80
2019-03-31T02:45:23.713Z,4.07
2019-03-31T02:48:12.622Z,4.00
2019-03-31T02:50:51.617Z,4.00
2019-03-31T02:53:40.605Z,6.80
2019-03-31T02:56:29.107Z,8.93
2019-03-31T02:59:19.214Z,3.80
2019-03-31T03:02:09.345Z,5.33
2019-03-31T03:05:16.812Z,3.60
2019-03-31T03:07:50.983Z,5.77
2019-03-31T03:10:40.965Z,3.33
2019-03-31T03:13:32.530Z,11.10
2019-03-31T03:16:22.155Z,4.37
2019-03-31T03:19:11.062Z,4.97
2019-03-31T03:21:59.591Z,4.87
2019-03-31T03:24:47.824Z,4.10
2019-03-31T03:27:37.881Z,2.93
2019-03-31T03:30:26.300Z,6.20
2019-03-31T03:33:17.685Z,5.17
2019-03-31T03:36:05.168Z,5.10
2019-03-31T03:38:53.706Z,5.03
2019-03-31T03:41:43.535Z,3.27
2019-03-31T03:44:31.874Z,7.63
2019-03-31T03:47:20.322Z,2.67
2019-03-31T03:50:09.077Z,5.03
2019-03-31T03:52:57.524Z,5.00
2019-03-31T03:55:46.592Z,2.73
2019-03-31T03:58:35.440Z,2.73
2019-03-31T04:01:26.030Z,2.90
2019-03-31T04:04:14.526Z,3.27
2019-03-31T04:07:03.023Z,3.77
2019-03-31T04:09:51.387Z,3.17
2019-03-31T04:12:40.260Z,7.93
2019-03-31T04:15:28.818Z,2.97
2019-03-31T04:18:17.267Z,2.50
2019-03-31T04:21:05.903Z,5.77
2019-03-31T04:23:54.546Z,5.00
2019-03-31T04:26:42.993Z,2.30
2019-03-31T04:29:31.089Z,3.70
2019-03-31T04:32:19.185Z,2.53
2019-03-31T04:35:08.108Z,4.90
2019-03-31T04:37:56.557Z,2.37
2019-03-31T04:40:45.068Z,3.60
2019-03-31T04:43:33.774Z,6.57
2019-03-31T04:46:22.165Z,4.17
2019-03-31T04:49:10.674Z,4.63
2019-03-31T04:51:56.577Z,3.87
2019-03-31T04:54:45.059Z,8.07
2019-03-31T04:57:33.717Z,4.73
2019-03-31T05:00:22.279Z,1.87
2019-03-31T05:03:11.124Z,3.63
2019-03-31T05:06:00.204Z,4.77
2019-03-31T05:08:48.717Z,4.30
2019-03-31T05:11:37.048Z,3.33
2019-03-31T05:14:25.826Z,3.80
2019-03-31T05:17:14.194Z,2.73
2019-03-31T05:20:03.550Z,2.60
2019-03-31T05:22:52.970Z,9.90
2019-03-31T05:25:42.309Z,3.40
2019-03-31T05:28:30.696Z,4.37
2019-03-31T05:31:19.214Z,4.40
2019-03-31T05:34:18.427Z,4.07
2019-03-31T05:36:58.001Z,5.87
2019-03-31T05:39:46.048Z,6.63
2019-03-31T05:42:34.760Z,3.60
2019-03-31T05:45:23.082Z,5.83
2019-03-31T05:48:11.437Z,7.47
2019-03-31T05:51:00.380Z,4.57
2019-03-31T05:53:48.776Z,6.83
2019-03-31T05:56:37.552Z,3.70
2019-03-31T05:59:26.155Z,9.33
2019-03-31T06:02:14.676Z,4.10
2019-03-31T06:05:03.868Z,9.17
2019-03-31T06:07:52.785Z,7.03
2019-03-31T06:10:41.177Z,5.13
2019-03-31T06:13:29.520Z,3.40
2019-03-31T06:16:17.743Z,4.77
2019-03-31T06:19:06.825Z,4.23
2019-03-31T06:21:55.469Z,5.00
2019-03-31T06:24:43.791Z,3.93
2019-03-31T06:27:32.059Z,1.70
2019-03-31T06:30:21.609Z,2.50
2019-03-31T06:33:09.858Z,3.07
2019-03-31T06:35:58.397Z,4.37
2019-03-31T06:38:47.093Z,6.20
2019-03-31T06:41:35.515Z,6.70
2019-03-31T06:44:23.765Z,4.90
2019-03-31T06:47:12.163Z,2.83
2019-03-31T06:50:00.382Z,11.00
2019-03-31T06:52:48.603Z,5.40
2019-03-31T06:55:37.347Z,8.33
2019-03-31T06:58:25.623Z,4.83
2019-03-31T07:01:14.217Z,4.70
2019-03-31T07:04:02.716Z,3.13
2019-03-31T07:06:51.413Z,4.90
2019-03-31T07:09:39.820Z,3.07
2019-03-31T07:12:28.696Z,4.60
2019-03-31T07:15:18.031Z,3.03
2019-03-31T07:18:06.736Z,1.73
2019-03-31T07:20:54.860Z,1.77
2019-03-31T07:23:43.244Z,2.47
2019-03-31T07:26:31.611Z,2.90
2019-03-31T07:29:20.014Z,3.67
2019-03-31T07:32:08.548Z,3.60
2019-03-31T07:34:57.239Z,5.07
2019-03-31T07:37:47.562Z,1.70
2019-03-31T07:40:36.887Z,1.83
2019-03-31T07:43:25.696Z,1.83
2019-03-31T07:46:14.034Z,6.67
2019-03-31T07:49:02.353Z,3.00
2019-03-31T07:51:50.729Z,1.63
2019-03-31T07:54:39.235Z,3.07
2019-03-31T07:57:27.716Z,3.23
2019-03-31T08:00:19.251Z,8.13
2019-03-31T08:03:07.913Z,3.73
2019-03-31T08:05:56.399Z,4.80
2019-03-31T08:08:44.748Z,4.70
2019-03-31T08:11:33.257Z,11.50
2019-03-31T08:14:21.482Z,3.83
2019-03-31T08:17:09.690Z,6.40
2019-03-31T08:19:58.732Z,10.23
2019-03-31T08:22:47.713Z,11.00
2019-03-31T08:25:37.239Z,6.50
2019-03-31T08:28:25.852Z,13.17
2019-03-31T08:31:14.018Z,14.03
2019-03-31T08:34:04.089Z,10.13
2019-03-31T08:36:52.614Z,7.67
2019-03-31T08:39:41.070Z,13.50
2019-03-31T08:42:29.362Z,16.73
2019-03-31T08:45:18.206Z,13.60
2019-03-31T08:48:06.772Z,9.53
2019-03-31T08:50:55.346Z,11.90
2019-03-31T08:53:43.480Z,11.30
2019-03-31T08:56:32.691Z,13.33
2019-03-31T08:59:21.620Z,14.03
2019-03-31T09:02:23.958Z,10.47
2019-03-31T09:05:13.123Z,11.43
2019-03-31T09:08:02.018Z,6.33
2019-03-31T09:10:51.006Z,7.40
2019-03-31T09:13:39.533Z,10.67
2019-03-31T09:16:28.322Z,11.60
2019-03-31T09:19:16.916Z,6.60
2019-03-31T09:22:05.996Z,7.20
2019-03-31T09:24:54.186Z,8.80
2019-03-31T09:27:42.567Z,7.10
2019-03-31T09:30:31.156Z,5.57
2019-03-31T09:33:19.296Z,5.17
2019-03-31T09:36:16.015Z,8.60
2019-03-31T09:38:59.021Z,12.00
2019-03-31T09:41:47.936Z,5.10
2019-03-31T09:44:36.743Z,6.13
2019-03-31T09:47:24.948Z,8.40
2019-03-31T09:50:17.262Z,3.40
2019-03-31T09:53:04.900Z,9.57
2019-03-31T09:55:53.360Z,7.50
2019-03-31T09:58:41.545Z,3.67
2019-03-31T10:01:29.956Z,4.83
2019-03-31T10:04:18.281Z,5.30
2019-03-31T10:07:06.923Z,3.80
2019-03-31T10:09:56.865Z,4.70
2019-03-31T10:12:45.171Z,5.37
2019-03-31T10:15:33.695Z,4.97
2019-03-31T10:18:22.036Z,5.90
2019-03-31T10:21:10.148Z,3.90
2019-03-31T10:23:58.768Z,4.67
2019-03-31T10:26:47.078Z,7.67
2019-03-31T10:29:35.328Z,7.07
2019-03-31T10:32:23.919Z,3.20
2019-03-31T10:35:13.569Z,6.60
2019-03-31T10:38:02.050Z,3.87
2019-03-31T10:40:50.520Z,4.23
2019-03-31T10:43:40.172Z,5.47
2019-03-31T10:46:29.039Z,5.47
2019-03-31T10:49:17.584Z,2.63
2019-03-31T10:52:06.284Z,3.93
2019-03-31T10:54:54.920Z,4.57
2019-03-31T10:57:43.544Z,3.50
2019-03-31T11:00:36.853Z,4.60
2019-03-31T11:03:25.232Z,3.30
2019-03-31T11:06:13.576Z,2.67
2019-03-31T11:08:52.989Z,2.20
2019-03-31T11:11:23.652Z,2.90
2019-03-31T11:13:54.382Z,4.80
2019-03-31T11:16:25.007Z,5.63
2019-03-31T11:18:55.787Z,3.87
2019-03-31T11:21:47.521Z,2.20
2019-03-31T11:24:36.117Z,6.20
2019-03-31T11:27:24.457Z,1.53
2019-03-31T11:30:13.814Z,2.33
2019-03-31T11:33:02.348Z,5.97
2019-03-31T11:35:50.659Z,3.37
2019-03-31T11:38:39.299Z,4.23
2019-03-31T11:41:27.295Z,2.80
2019-03-31T11:44:15.655Z,1.53
2019-03-31T11:47:04.283Z,4.93
2019-03-31T11:49:52.684Z,2.20
2019-03-31T11:52:23.383Z,9.10
2019-03-31T11:54:54.050Z,3.00
2019-03-31T11:57:24.819Z,2.47
2019-03-31T11:59:55.469Z,3.33
2019-03-31T12:02:27.841Z,3.80
2019-03-31T12:04:58.890Z,5.80
2019-03-31T12:07:29.513Z,4.47
2019-03-31T12:10:00.353Z,3.37
2019-03-31T12:12:31.100Z,72.90
2019-03-31T12:15:01.706Z,228.87
2019-03-31T12:17:32.487Z,355.93
2019-03-31T12:20:04.947Z,345.93
2019-03-31T12:22:35.791Z,372.30
2019-03-31T12:25:08.176Z,382.43
2019-03-31T12:27:56.461Z,397.20
2019-03-31T12:30:45.186Z,374.90
2019-03-31T12:33:33.806Z,368.27
2019-03-31T12:36:22.526Z,392.77
2019-03-31T12:39:10.741Z,415.47
2019-03-31T12:41:59.068Z,409.93
2019-03-31T12:44:47.466Z,360.67
2019-03-31T12:47:35.644Z,374.07
2019-03-31T12:50:07.534Z,361.47
2019-03-31T12:52:46.723Z,342.17
2019-03-31T12:55:10.659Z,368.80
2019-03-31T12:57:41.366Z,333.43
2019-03-31T13:00:29.581Z,315.67
2019-03-31T13:03:17.817Z,306.27
2019-03-31T13:06:06.370Z,300.83
2019-03-31T13:08:54.623Z,285.27
2019-03-31T13:11:42.999Z,274.90
2019-03-31T13:14:31.230Z,296.40
2019-03-31T13:17:19.681Z,292.10
2019-03-31T13:20:09.037Z,273.50
2019-03-31T13:22:58.319Z,269.27
2019-03-31T13:25:46.734Z,232.43
2019-03-31T13:28:34.974Z,244.37
2019-03-31T13:31:23.295Z,238.97
2019-03-31T13:34:11.891Z,236.60
2019-03-31T13:37:00.352Z,246.93
2019-03-31T13:39:48.794Z,215.17
2019-03-31T13:42:37.218Z,220.40
2019-03-31T13:45:25.790Z,214.37
2019-03-31T13:48:14.259Z,216.97
2019-03-31T13:51:02.611Z,222.53
2019-03-31T13:53:50.904Z,224.13
2019-03-31T13:56:39.927Z,204.07
2019-03-31T13:59:28.280Z,197.23
2019-03-31T14:02:16.658Z,168.23
2019-03-31T14:05:06.713Z,180.43
2019-03-31T14:07:55.102Z,196.60
2019-03-31T14:10:43.662Z,195.20
2019-03-31T14:13:31.750Z,176.20
2019-03-31T14:16:19.739Z,181.93
2019-03-31T14:19:07.990Z,184.90
2019-03-31T14:21:56.407Z,164.33
2019-03-31T14:24:45.086Z,163.70
2019-03-31T14:27:33.500Z,165.63
2019-03-31T14:30:22.455Z,168.03
2019-03-31T14:33:11.051Z,155.20
2019-03-31T14:35:59.637Z,170.17
2019-03-31T14:38:47.944Z,139.67
2019-03-31T14:41:36.026Z,141.30
2019-03-31T14:44:24.429Z,143.87
2019-03-31T14:47:12.979Z,123.77
2019-03-31T14:50:01.513Z,136.13
2019-03-31T14:52:49.695Z,127.83
2019-03-31T14:55:37.931Z,132.53
2019-03-31T14:58:26.342Z,132.17
2019-03-31T15:01:14.595Z,125.30
2019-03-31T15:04:02.984Z,113.27
2019-03-31T15:06:42.620Z,128.43
2019-03-31T15:09:15.946Z,121.40
2019-03-31T15:11:46.596Z,107.30
2019-03-31T15:14:17.243Z,108.87
2019-03-31T15:17:05.848Z,123.23
2019-03-31T15:19:54.271Z,110.87
2019-03-31T15:22:42.431Z,119.27
2019-03-31T15:25:30.732Z,92.87
2019-03-31T15:28:19.011Z,99.60
2019-03-31T15:31:07.509Z,93.80
2019-03-31T15:33:56.077Z,91.10
2019-03-31T15:36:44.246Z,93.33
2019-03-31T15:39:32.649Z,104.87
2019-03-31T15:42:20.846Z,92.93
2019-03-31T15:45:11.314Z,78.03
2019-03-31T15:48:00.504Z,91.77
2019-03-31T15:50:49.097Z,94.20
2019-03-31T15:53:37.354Z,85.23
2019-03-31T15:56:25.984Z,90.60
2019-03-31T15:59:14.390Z,73.63
2019-03-31T16:02:02.686Z,84.67
2019-03-31T16:04:50.932Z,77.63
2019-03-31T16:07:39.689Z,79.87
2019-03-31T16:10:27.900Z,78.10
2019-03-31T16:13:16.036Z,75.57
2019-03-31T16:16:05.448Z,70.20
2019-03-31T16:18:54.065Z,78.63
2019-03-31T16:21:44.254Z,70.53
2019-03-31T16:24:34.251Z,75.53
2019-03-31T16:27:22.469Z,64.97
2019-03-31T16:30:11.272Z,75.67
2019-03-31T16:32:59.728Z,67.43
2019-03-31T16:35:48.064Z,65.87
2019-03-31T16:38:36.197Z,73.93
2019-03-31T16:41:24.385Z,62.17
2019-03-31T16:44:12.610Z,69.13
2019-03-31T16:47:01.112Z,62.20
2019-03-31T16:49:49.469Z,66.60
2019-03-31T16:52:37.752Z,68.33
2019-03-31T16:55:26.251Z,51.27
2019-03-31T16:58:14.568Z,50.47
2019-03-31T17:01:02.797Z,54.87
2019-03-31T17:03:51.084Z,63.73
2019-03-31T17:06:39.623Z,57.60
2019-03-31T17:09:27.634Z,51.37
2019-03-31T17:12:16.009Z,51.77
2019-03-31T17:15:06.912Z,44.83
2019-03-31T17:17:55.467Z,42.27
2019-03-31T17:20:43.951Z,49.47
2019-03-31T17:23:32.559Z,49.00
2019-03-31T17:26:21.158Z,46.80
2019-03-31T17:29:09.560Z,50.17
2019-03-31T17:31:57.830Z,45.63
2019-03-31T17:34:46.241Z,41.53
2019-03-31T17:37:35.904Z,44.10
2019-03-31T17:40:24.124Z,43.13
2019-03-31T17:43:12.538Z,39.60
2019-03-31T17:46:00.938Z,44.23
2019-03-31T17:48:49.532Z,45.87
2019-03-31T17:51:38.085Z,47.77
2019-03-31T17:54:26.781Z,45.90
2019-03-31T17:57:15.608Z,32.67
2019-03-31T18:00:05.901Z,37.07
2019-03-31T18:02:54.356Z,37.60
2019-03-31T18:05:42.629Z,43.50
2019-03-31T18:08:30.782Z,41.43
2019-03-31T18:11:19.198Z,35.00
2019-03-31T18:14:07.706Z,38.33
2019-03-31T18:16:56.253Z,33.77
2019-03-31T18:19:44.610Z,36.67
2019-03-31T18:22:33.536Z,42.37
2019-03-31T18:25:22.464Z,38.70
2019-03-31T18:28:11.286Z,34.83
2019-03-31T18:31:00.063Z,29.50
2019-03-31T18:33:48.608Z,32.37
2019-03-31T18:36:37.330Z,26.33
2019-03-31T18:39:25.806Z,32.67
2019-03-31T18:42:14.401Z,28.07
2019-03-31T18:45:02.802Z,48.33
2019-03-31T18:47:51.273Z,31.87
2019-03-31T18:50:39.497Z,30.77
2019-03-31T18:53:38.827Z,32.97
2019-03-31T18:56:45.108Z,29.30
2019-03-31T18:59:34.999Z,30.43
2019-03-31T19:02:25.347Z,27.20
2019-03-31T19:05:24.374Z,27.23
2019-03-31T19:08:13.175Z,24.90
2019-03-31T19:11:14.801Z,29.60
2019-03-31T19:14:06.373Z,23.83
2019-03-31T19:17:13.863Z,25.80
2019-03-31T19:20:04.106Z,29.83
2019-03-31T19:22:56.984Z,27.60
2019-03-31T19:25:55.767Z,27.30
2019-03-31T19:28:52.996Z,30.20
2019-03-31T19:31:43.190Z,24.40
2019-03-31T19:34:33.180Z,26.63
2019-03-31T19:37:39.821Z,25.33
2019-03-31T19:40:29.607Z,22.00
2019-03-31T19:43:37.521Z,18.90
2019-03-31T19:46:33.156Z,22.93
2019-03-31T19:49:26.888Z,21.70
2019-03-31T19:52:33.781Z,27.70
2019-03-31T19:55:26.639Z,21.87
2019-03-31T19:58:25.421Z,23.03
2019-03-31T20:01:21.372Z,19.20
2019-03-31T20:04:27.798Z,19.07
2019-03-31T20:07:29.610Z,23.47
2019-03-31T20:10:19.683Z,20.57
2019-03-31T20:13:12.160Z,24.20
2019-03-31T20:16:11.233Z,21.53
2019-03-31T20:19:17.037Z,22.93
2019-03-31T20:22:22.035Z,28.03
2019-03-31T20:25:30.262Z,20.87
2019-03-31T20:28:05.406Z,20.10
2019-03-31T20:30:55.564Z,21.07
2019-03-31T20:33:57.436Z,16.97
2019-03-31T20:36:49.888Z,17.47
2019-03-31T20:39:56.417Z,19.87
2019-03-31T20:42:43.172Z,17.40
2019-03-31T20:45:31.719Z,16.57
2019-03-31T20:48:20.421Z,14.30
2019-03-31T20:51:08.791Z,21.17
2019-03-31T20:53:57.085Z,20.23
2019-03-31T20:56:45.374Z,16.80
2019-03-31T20:59:34.007Z,18.93
2019-03-31T21:02:22.002Z,20.53
2019-03-31T21:05:10.157Z,16.30
2019-03-31T21:07:58.367Z,12.00
2019-03-31T21:10:46.958Z,19.00
2019-03-31T21:13:35.535Z,19.17
2019-03-31T21:16:23.664Z,16.73
2019-03-31T21:19:11.931Z,15.07
2019-03-31T21:21:59.997Z,14.53
2019-03-31T21:24:48.232Z,13.20
2019-03-31T21:27:36.410Z,14.50
2019-03-31T21:30:24.733Z,13.40
2019-03-31T21:33:12.962Z,17.90
2019-03-31T21:36:28.137Z,15.43
2019-03-31T21:39:08.393Z,12.20
2019-03-31T21:41:56.482Z,14.13
2019-03-31T21:44:44.598Z,10.00
2019-03-31T21:47:32.896Z,12.10
2019-03-31T21:50:21.255Z,14.40
2019-03-31T21:53:09.997Z,12.40
2019-03-31T21:55:58.451Z,11.77
2019-03-31T21:58:47.059Z,11.93
2019-03-31T22:01:35.303Z,13.00
2019-03-31T22:04:23.910Z,10.27
2019-03-31T22:07:12.383Z,9.13
2019-03-31T22:10:03.089Z,11.70
2019-03-31T22:12:51.462Z,11.43
2019-03-31T22:15:39.704Z,13.30
2019-03-31T22:18:28.032Z,14.60
2019-03-31T22:21:16.346Z,9.60
2019-03-31T22:24:04.863Z,9.77
2019-03-31T22:26:53.323Z,10.73
2019-03-31T22:29:24.079Z,8.83
2019-03-31T22:32:12.820Z,10.47
2019-03-31T22:35:00.885Z,9.83
2019-03-31T22:37:49.314Z,11.03
2019-03-31T22:40:37.470Z,11.67
2019-03-31T22:43:25.843Z,13.03
2019-03-31T22:46:14.175Z,8.33
2019-03-31T22:49:02.703Z,8.50
2019-03-31T22:51:50.839Z,8.73
2019-03-31T22:54:39.021Z,7.03
2019-03-31T22:57:27.428Z,8.17
2019-03-31T23:00:17.259Z,8.20
2019-03-31T23:03:05.676Z,8.50
2019-03-31T23:05:53.601Z,9.07
2019-03-31T23:08:42.025Z,11.77
2019-03-31T23:11:29.881Z,7.20
2019-03-31T23:14:18.153Z,8.10
2019-03-31T23:17:07.385Z,5.43
2019-03-31T23:19:55.468Z,8.70
2019-03-31T23:22:43.817Z,12.03
2019-03-31T23:25:31.880Z,7.03
2019-03-31T23:28:20.170Z,7.40
2019-03-31T23:31:08.699Z,8.97
2019-03-31T23:33:56.918Z,7.53
2019-03-31T23:36:45.467Z,7.30
2019-03-31T23:39:33.718Z,5.97
2019-03-31T23:42:21.883Z,7.43
2019-03-31T23:45:10.560Z,6.90
2019-03-31T23:47:59.058Z,5.30
2019-03-31T23:50:47.390Z,9.10
2019-03-31T23:53:35.814Z,7.53
2019-03-31T23:56:24.224Z,6.93
2019-03-31T23:58:54.863Z,6.43
